createdAt,value
2022-09-21T00:03:30.522Z,6.30
2022-09-21T00:06:49.175Z,6.26
2022-09-21T00:10:15.680Z,6.25
2022-09-21T00:13:34.325Z,6.24
2022-09-21T00:31:05.245Z,6.27
2022-09-21T01:00:16.865Z,6.27
2022-09-21T01:04:04.574Z,6.23
2022-09-21T01:21:47.406Z,6.37
2022-09-21T01:25:07.102Z,6.39
2022-09-21T01:28:39.301Z,6.42
2022-09-21T01:50:13.519Z,6.55
2022-09-21T01:53:31.900Z,6.53
2022-09-21T01:57:05.481Z,6.54
2022-09-21T02:07:59.623Z,6.60
2022-09-21T02:11:40.132Z,6.59
2022-09-21T02:14:24.168Z,6.58
2022-09-21T02:17:56.555Z,6.59
2022-09-21T02:39:45.014Z,6.59
2022-09-21T02:43:23.846Z,6.53
2022-09-21T02:46:25.647Z,6.51
2022-09-21T02:49:45.872Z,6.50
2022-09-21T02:52:58.852Z,6.49
2022-09-21T03:16:03.563Z,6.46
2022-09-21T03:19:24.541Z,6.44
2022-09-21T03:36:31.106Z,6.45
2022-09-21T03:40:11.371Z,6.43
2022-09-21T03:43:30.313Z,6.42
2022-09-21T04:01:00.342Z,6.51
2022-09-21T04:04:30.987Z,6.49
2022-09-21T04:07:33.291Z,6.48
2022-09-21T04:20:42.163Z,6.55
2022-09-21T04:23:50.850Z,6.54
2022-09-21T04:26:31.925Z,6.55
2022-09-21T04:29:05.493Z,6.56
2022-09-21T04:32:13.011Z,6.57
2022-09-21T04:35:46.263Z,6.58
2022-09-21T04:38:42.861Z,6.59
2022-09-21T04:41:32.495Z,6.60
2022-09-21T04:44:20.028Z,6.60
2022-09-21T04:47:23.576Z,6.60
2022-09-21T04:50:51.353Z,6.59
2022-09-21T04:53:52.996Z,6.60
2022-09-21T04:56:53.251Z,6.61
2022-09-21T05:00:08.814Z,6.62
2022-09-21T05:02:51.800Z,6.63
2022-09-21T05:30:02.299Z,6.69
2022-09-21T05:36:51.928Z,6.68
2022-09-21T05:39:25.404Z,6.69
2022-09-21T05:42:16.206Z,6.71
2022-09-21T05:45:06.956Z,6.72
2022-09-21T05:48:24.466Z,6.74
2022-09-21T05:51:47.511Z,6.77
2022-09-21T05:55:08.749Z,6.80
2022-09-21T05:58:27.141Z,6.82
2022-09-21T06:28:37.256Z,7.10
2022-09-21T06:32:25.252Z,7.10
2022-09-21T06:35:20.292Z,7.15
2022-09-21T06:38:17.497Z,7.20
2022-09-21T06:41:48.380Z,7.28
2022-09-21T06:55:46.477Z,7.46
2022-09-21T06:59:25.050Z,7.44
2022-09-21T07:16:07.574Z,7.77
2022-09-21T07:19:37.441Z,7.84
2022-09-21T07:36:34.227Z,7.94
2022-09-21T07:39:28.975Z,7.97
2022-09-21T07:42:38.761Z,8.02
2022-09-21T07:45:52.030Z,8.13
2022-09-21T07:48:45.497Z,8.23
2022-09-21T07:52:13.800Z,8.30
2022-09-21T07:55:36.530Z,8.29
2022-09-21T07:59:08.971Z,8.31
2022-09-21T08:02:47.973Z,8.27
2022-09-21T08:32:51.081Z,8.35
2022-09-21T08:35:42.176Z,8.33
2022-09-21T08:38:51.022Z,8.39
2022-09-21T08:42:24.326Z,8.43
2022-09-21T08:45:17.208Z,8.48
2022-09-21T08:48:37.318Z,8.53
2022-09-21T08:51:12.026Z,8.53
2022-09-21T08:54:28.206Z,8.53
2022-09-21T08:57:05.354Z,8.53
2022-09-21T08:59:43.838Z,8.56
2022-09-21T09:02:37.400Z,8.56
2022-09-21T09:20:13.119Z,8.62
2022-09-21T09:23:49.566Z,8.59
2022-09-21T09:27:15.240Z,8.61
2022-09-21T09:51:33.859Z,8.67
2022-09-21T09:54:37.790Z,8.67
2022-09-21T09:57:33.192Z,8.68
2022-09-21T10:01:15.103Z,8.66
2022-09-21T10:14:06.913Z,8.65
2022-09-21T10:41:01.534Z,8.96
2022-09-21T10:43:54.385Z,8.99
2022-09-21T10:49:42.566Z,9.02
2022-09-21T10:52:19.174Z,9.00
2022-09-21T10:54:57.418Z,8.97
2022-09-21T10:57:43.157Z,8.94
2022-09-21T11:01:17.365Z,8.87
2022-09-21T11:04:53.559Z,8.80
2022-09-21T11:21:43.697Z,9.37
2022-09-21T11:25:42.464Z,9.45
2022-09-21T11:29:11.895Z,9.62
2022-09-21T11:32:37.299Z,9.80
2022-09-21T11:35:59.142Z,9.99
2022-09-21T11:39:01.397Z,10.10
2022-09-21T12:04:22.131Z,10.56
2022-09-21T12:07:24.883Z,10.64
2022-09-21T12:10:49.576Z,10.72
2022-09-21T12:14:16.138Z,10.79
2022-09-21T12:17:13.239Z,10.84
2022-09-21T12:41:55.088Z,11.05
2022-09-21T12:44:35.762Z,11.17
2022-09-21T12:47:32.303Z,11.19
2022-09-21T12:50:48.618Z,11.20
2022-09-21T12:53:32.409Z,11.21
2022-09-21T12:56:30.748Z,11.24
2022-09-21T13:00:14.913Z,11.31
2022-09-21T13:24:33.053Z,11.70
2022-09-21T13:27:08.346Z,11.77
2022-09-21T13:30:40.618Z,11.84
2022-09-21T13:34:02.478Z,11.87
2022-09-21T13:36:38.232Z,11.86
2022-09-21T13:39:40.987Z,11.86
2022-09-21T13:42:36.392Z,11.85
2022-09-21T13:45:54.105Z,11.86
2022-09-21T14:07:28.062Z,11.12
2022-09-21T14:10:32.374Z,10.76
2022-09-21T14:13:47.336Z,10.54
2022-09-21T14:47:21.924Z,10.28
2022-09-21T14:50:23.554Z,10.32
2022-09-21T14:54:23.496Z,10.40
2022-09-21T14:57:52.286Z,10.48
2022-09-21T15:25:48.457Z,10.51
2022-09-21T15:29:18.246Z,10.46
2022-09-21T15:32:01.220Z,10.43
2022-09-21T15:35:52.168Z,10.42
2022-09-21T16:01:48.101Z,9.25
2022-09-21T16:05:21.239Z,9.09
2022-09-21T16:26:40.725Z,8.55
2022-09-21T16:29:38.869Z,8.43
2022-09-21T16:32:48.692Z,8.39
2022-09-21T16:35:52.009Z,8.31
2022-09-21T16:39:14.984Z,8.25
2022-09-21T16:42:47.401Z,8.20
2022-09-21T17:03:36.412Z,8.06
2022-09-21T17:07:17.380Z,8.01
2022-09-21T17:32:07.743Z,8.09
2022-09-21T17:35:22.575Z,8.06
2022-09-21T17:39:00.758Z,8.05
2022-09-21T17:42:27.524Z,8.06
2022-09-21T17:45:50.435Z,8.04
2022-09-21T18:06:34.066Z,8.07
2022-09-21T18:10:04.465Z,8.04
2022-09-21T18:28:10.789Z,8.02
2022-09-21T18:31:38.194Z,7.99
2022-09-21T18:35:29.555Z,7.99
2022-09-21T18:51:09.196Z,7.96
2022-09-21T19:13:07.986Z,7.83
2022-09-21T19:16:50.870Z,7.80
2022-09-21T19:20:32.209Z,7.79
2022-09-21T19:36:10.235Z,7.77
2022-09-21T19:40:01.997Z,7.72
2022-09-21T19:55:12.295Z,7.66
2022-09-21T19:58:59.474Z,7.63
2022-09-21T20:15:10.450Z,7.64
2022-09-21T20:19:07.438Z,7.62
2022-09-21T20:34:41.882Z,7.57
2022-09-21T20:38:22.488Z,7.53
2022-09-21T20:42:09.374Z,7.50
2022-09-21T20:53:17.273Z,7.45
2022-09-21T20:56:31.075Z,7.41
2022-09-21T20:59:52.004Z,7.40
2022-09-21T21:03:11.395Z,7.39
2022-09-21T21:30:15.878Z,7.42
2022-09-21T21:33:43.880Z,7.41
2022-09-21T21:37:15.863Z,7.41
2022-09-21T21:51:14.673Z,7.44
2022-09-21T21:54:25.233Z,7.41
2022-09-21T21:57:29.109Z,7.42
2022-09-21T22:00:39.525Z,7.44
2022-09-21T22:17:02.453Z,7.60
2022-09-21T22:20:41.298Z,7.56
2022-09-21T22:23:46.623Z,7.55
2022-09-21T22:27:42.581Z,7.53
2022-09-21T22:41:04.894Z,7.51
2022-09-21T22:44:26.336Z,7.44
2022-09-21T22:48:14.257Z,7.40
2022-09-21T23:01:57.905Z,7.20
2022-09-21T23:05:45.824Z,7.11
2022-09-21T23:30:21.601Z,6.84
2022-09-21T23:33:07.737Z,6.78
2022-09-21T23:36:22.631Z,6.74
2022-09-21T23:40:01.151Z,6.68
